sensor_id;sensor_type;location;lat;lon;timestamp;P1;durP1;ratioP1;P2;durP2;ratioP2
58657;SDS011;44428;45.630;13.786;2023-03-13T00:02:00;8.10;;;5.15;;
58657;SDS011;44428;45.630;13.786;2023-03-13T00:04:27;7.25;;;4.50;;
58657;SDS011;44428;45.630;13.786;2023-03-13T00:06:54;6.88;;;4.32;;
58657;SDS011;44428;45.630;13.786;2023-03-13T00:09:22;7.22;;;4.63;;
58657;SDS011;44428;45.630;13.786;2023-03-13T00:11:48;9.07;;;4.40;;
58657;SDS011;44428;45.630;13.786;2023-03-13T00:14:14;7.88;;;4.72;;
58657;SDS011;44428;45.630;13.786;2023-03-13T00:16:41;7.53;;;4.60;;
58657;SDS011;44428;45.630;13.786;2023-03-13T00:19:07;8.48;;;4.90;;
58657;SDS011;44428;45.630;13.786;2023-03-13T00:21:34;6.90;;;4.20;;
58657;SDS011;44428;45.630;13.786;2023-03-13T00:26:32;9.45;;;4.50;;
58657;SDS011;44428;45.630;13.786;2023-03-13T00:28:59;7.05;;;4.28;;
58657;SDS011;44428;45.630;13.786;2023-03-13T00:31:26;6.32;;;3.85;;
58657;SDS011;44428;45.630;13.786;2023-03-13T00:34:02;5.72;;;3.85;;
58657;SDS011;44428;45.630;13.786;2023-03-13T00:36:33;6.13;;;4.00;;
58657;SDS011;44428;45.630;13.786;2023-03-13T00:39:01;6.90;;;4.28;;
58657;SDS011;44428;45.630;13.786;2023-03-13T00:41:30;6.75;;;3.40;;
58657;SDS011;44428;45.630;13.786;2023-03-13T00:43:59;10.30;;;3.72;;
58657;SDS011;44428;45.630;13.786;2023-03-13T00:46:27;6.80;;;3.72;;
58657;SDS011;44428;45.630;13.786;2023-03-13T00:49:00;6.38;;;3.45;;
58657;SDS011;44428;45.630;13.786;2023-03-13T00:51:29;7.05;;;3.15;;
58657;SDS011;44428;45.630;13.786;2023-03-13T00:53:56;7.40;;;3.47;;
58657;SDS011;44428;45.630;13.786;2023-03-13T00:56:27;5.88;;;2.90;;
58657;SDS011;44428;45.630;13.786;2023-03-13T00:58:55;4.97;;;2.75;;
58657;SDS011;44428;45.630;13.786;2023-03-13T01:01:25;6.47;;;3.15;;
58657;SDS011;44428;45.630;13.786;2023-03-13T01:04:00;5.65;;;3.33;;
58657;SDS011;44428;45.630;13.786;2023-03-13T01:06:30;5.63;;;3.22;;
58657;SDS011;44428;45.630;13.786;2023-03-13T01:08:59;6.82;;;3.35;;
58657;SDS011;44428;45.630;13.786;2023-03-13T01:11:27;5.30;;;3.00;;
58657;SDS011;44428;45.630;13.786;2023-03-13T01:13:56;5.68;;;3.10;;
58657;SDS011;44428;45.630;13.786;2023-03-13T01:16:25;7.43;;;3.20;;
58657;SDS011;44428;45.630;13.786;2023-03-13T01:18:58;5.93;;;3.33;;
58657;SDS011;44428;45.630;13.786;2023-03-13T01:21:26;8.02;;;3.38;;
58657;SDS011;44428;45.630;13.786;2023-03-13T01:23:55;6.72;;;3.30;;
58657;SDS011;44428;45.630;13.786;2023-03-13T01:26:22;8.45;;;3.20;;
58657;SDS011;44428;45.630;13.786;2023-03-13T01:28:50;5.78;;;3.28;;
58657;SDS011;44428;45.630;13.786;2023-03-13T01:31:38;7.65;;;3.10;;
58657;SDS011;44428;45.630;13.786;2023-03-13T01:34:06;7.03;;;3.17;;
58657;SDS011;44428;45.630;13.786;2023-03-13T01:36:35;4.45;;;2.40;;
58657;SDS011;44428;45.630;13.786;2023-03-13T01:39:04;5.03;;;3.08;;
58657;SDS011;44428;45.630;13.786;2023-03-13T01:41:33;5.10;;;2.60;;
58657;SDS011;44428;45.630;13.786;2023-03-13T01:44:01;4.30;;;2.13;;
58657;SDS011;44428;45.630;13.786;2023-03-13T01:46:36;4.57;;;2.58;;
58657;SDS011;44428;45.630;13.786;2023-03-13T01:49:13;4.82;;;2.63;;
58657;SDS011;44428;45.630;13.786;2023-03-13T01:51:58;4.25;;;2.10;;
58657;SDS011;44428;45.630;13.786;2023-03-13T01:54:36;5.00;;;2.83;;
58657;SDS011;44428;45.630;13.786;2023-03-13T01:57:16;4.82;;;2.30;;
58657;SDS011;44428;45.630;13.786;2023-03-13T02:00:07;4.15;;;2.10;;
58657;SDS011;44428;45.630;13.786;2023-03-13T02:02:42;4.90;;;2.10;;
58657;SDS011;44428;45.630;13.786;2023-03-13T02:05:11;6.43;;;2.45;;
58657;SDS011;44428;45.630;13.786;2023-03-13T02:07:50;4.82;;;2.53;;
58657;SDS011;44428;45.630;13.786;2023-03-13T02:10:22;5.00;;;2.40;;
58657;SDS011;44428;45.630;13.786;2023-03-13T02:12:56;4.15;;;2.13;;
58657;SDS011;44428;45.630;13.786;2023-03-13T02:15:27;4.65;;;2.38;;
58657;SDS011;44428;45.630;13.786;2023-03-13T02:18:02;3.17;;;1.83;;
58657;SDS011;44428;45.630;13.786;2023-03-13T02:20:29;6.55;;;2.30;;
58657;SDS011;44428;45.630;13.786;2023-03-13T02:26:03;6.40;;;2.92;;
58657;SDS011;44428;45.630;13.786;2023-03-13T02:28:33;4.18;;;2.55;;
58657;SDS011;44428;45.630;13.786;2023-03-13T02:31:10;6.57;;;2.42;;
58657;SDS011;44428;45.630;13.786;2023-03-13T02:33:40;5.32;;;2.22;;
58657;SDS011;44428;45.630;13.786;2023-03-13T02:36:11;8.05;;;2.17;;
58657;SDS011;44428;45.630;13.786;2023-03-13T02:38:46;6.45;;;2.45;;
58657;SDS011;44428;45.630;13.786;2023-03-13T02:41:29;4.15;;;2.03;;
58657;SDS011;44428;45.630;13.786;2023-03-13T02:43:59;6.75;;;2.08;;
58657;SDS011;44428;45.630;13.786;2023-03-13T02:46:25;4.85;;;2.08;;
58657;SDS011;44428;45.630;13.786;2023-03-13T02:48:53;3.72;;;1.98;;
58657;SDS011;44428;45.630;13.786;2023-03-13T02:54:05;4.47;;;2.17;;
58657;SDS011;44428;45.630;13.786;2023-03-13T02:56:35;3.47;;;1.83;;
58657;SDS011;44428;45.630;13.786;2023-03-13T02:59:09;4.55;;;2.10;;
58657;SDS011;44428;45.630;13.786;2023-03-13T03:01:38;4.70;;;2.22;;
58657;SDS011;44428;45.630;13.786;2023-03-13T03:04:06;4.38;;;2.20;;
58657;SDS011;44428;45.630;13.786;2023-03-13T03:06:32;4.45;;;1.95;;
58657;SDS011;44428;45.630;13.786;2023-03-13T03:09:02;4.45;;;2.10;;
58657;SDS011;44428;45.630;13.786;2023-03-13T03:11:33;4.43;;;2.15;;
58657;SDS011;44428;45.630;13.786;2023-03-13T03:14:05;4.90;;;2.08;;
58657;SDS011;44428;45.630;13.786;2023-03-13T03:16:36;5.30;;;2.22;;
58657;SDS011;44428;45.630;13.786;2023-03-13T03:19:04;5.00;;;2.10;;
58657;SDS011;44428;45.630;13.786;2023-03-13T03:21:32;4.57;;;1.75;;
58657;SDS011;44428;45.630;13.786;2023-03-13T03:23:59;3.35;;;1.70;;
58657;SDS011;44428;45.630;13.786;2023-03-13T03:26:25;6.07;;;2.42;;
58657;SDS011;44428;45.630;13.786;2023-03-13T03:28:52;3.50;;;1.80;;
58657;SDS011;44428;45.630;13.786;2023-03-13T03:31:19;5.00;;;1.70;;
58657;SDS011;44428;45.630;13.786;2023-03-13T03:33:47;5.03;;;2.30;;
58657;SDS011;44428;45.630;13.786;2023-03-13T03:36:16;3.95;;;1.98;;
58657;SDS011;44428;45.630;13.786;2023-03-13T03:38:47;4.20;;;2.00;;
58657;SDS011;44428;45.630;13.786;2023-03-13T03:41:17;4.85;;;2.08;;
58657;SDS011;44428;45.630;13.786;2023-03-13T03:43:44;4.55;;;2.30;;
58657;SDS011;44428;45.630;13.786;2023-03-13T03:46:14;3.65;;;2.10;;
58657;SDS011;44428;45.630;13.786;2023-03-13T03:48:42;4.78;;;2.10;;
58657;SDS011;44428;45.630;13.786;2023-03-13T03:51:10;4.40;;;1.80;;
58657;SDS011;44428;45.630;13.786;2023-03-13T03:53:41;6.43;;;3.22;;
58657;SDS011;44428;45.630;13.786;2023-03-13T03:56:08;4.35;;;2.03;;
58657;SDS011;44428;45.630;13.786;2023-03-13T03:58:39;4.80;;;2.13;;
58657;SDS011;44428;45.630;13.786;2023-03-13T04:01:12;5.00;;;2.13;;
58657;SDS011;44428;45.630;13.786;2023-03-13T04:03:39;5.53;;;2.55;;
58657;SDS011;44428;45.630;13.786;2023-03-13T04:06:05;4.50;;;2.20;;
58657;SDS011;44428;45.630;13.786;2023-03-13T04:08:32;5.15;;;3.10;;
58657;SDS011;44428;45.630;13.786;2023-03-13T04:11:01;3.40;;;1.90;;
58657;SDS011;44428;45.630;13.786;2023-03-13T04:13:31;4.25;;;2.15;;
58657;SDS011;44428;45.630;13.786;2023-03-13T04:15:58;5.32;;;2.20;;
58657;SDS011;44428;45.630;13.786;2023-03-13T04:18:24;5.53;;;2.53;;
58657;SDS011;44428;45.630;13.786;2023-03-13T04:20:58;3.90;;;1.85;;
58657;SDS011;44428;45.630;13.786;2023-03-13T04:23:31;3.70;;;2.00;;
58657;SDS011;44428;45.630;13.786;2023-03-13T04:25:58;6.45;;;2.42;;
58657;SDS011;44428;45.630;13.786;2023-03-13T04:28:24;10.40;;;3.53;;
58657;SDS011;44428;45.630;13.786;2023-03-13T04:30:50;4.55;;;2.28;;
58657;SDS011;44428;45.630;13.786;2023-03-13T04:33:37;4.93;;;2.45;;
58657;SDS011;44428;45.630;13.786;2023-03-13T04:36:36;5.03;;;2.10;;
58657;SDS011;44428;45.630;13.786;2023-03-13T04:39:15;6.10;;;2.53;;
58657;SDS011;44428;45.630;13.786;2023-03-13T04:42:11;5.68;;;2.60;;
58657;SDS011;44428;45.630;13.786;2023-03-13T04:45:13;4.20;;;2.45;;
58657;SDS011;44428;45.630;13.786;2023-03-13T04:47:59;3.92;;;2.25;;
58657;SDS011;44428;45.630;13.786;2023-03-13T04:50:42;4.50;;;2.35;;
58657;SDS011;44428;45.630;13.786;2023-03-13T04:53:37;4.78;;;2.25;;
58657;SDS011;44428;45.630;13.786;2023-03-13T04:56:26;4.88;;;2.60;;
58657;SDS011;44428;45.630;13.786;2023-03-13T04:59:13;5.70;;;2.38;;
58657;SDS011;44428;45.630;13.786;2023-03-13T05:01:58;5.63;;;2.83;;
58657;SDS011;44428;45.630;13.786;2023-03-13T05:04:41;5.40;;;2.78;;
58657;SDS011;44428;45.630;13.786;2023-03-13T05:07:27;4.43;;;2.53;;
58657;SDS011;44428;45.630;13.786;2023-03-13T05:10:26;7.85;;;3.22;;
58657;SDS011;44428;45.630;13.786;2023-03-13T05:13:04;6.38;;;2.80;;
58657;SDS011;44428;45.630;13.786;2023-03-13T05:15:51;5.60;;;2.65;;
58657;SDS011;44428;45.630;13.786;2023-03-13T05:18:28;4.57;;;2.55;;
58657;SDS011;44428;45.630;13.786;2023-03-13T05:21:24;6.20;;;2.88;;
58657;SDS011;44428;45.630;13.786;2023-03-13T05:24:09;7.78;;;3.20;;
58657;SDS011;44428;45.630;13.786;2023-03-13T05:27:14;5.47;;;2.97;;
58657;SDS011;44428;45.630;13.786;2023-03-13T05:30:05;6.97;;;3.33;;
58657;SDS011;44428;45.630;13.786;2023-03-13T05:32:45;6.50;;;3.00;;
58657;SDS011;44428;45.630;13.786;2023-03-13T05:35:47;6.25;;;3.30;;
58657;SDS011;44428;45.630;13.786;2023-03-13T05:38:36;5.57;;;3.00;;
58657;SDS011;44428;45.630;13.786;2023-03-13T05:41:23;5.45;;;2.80;;
58657;SDS011;44428;45.630;13.786;2023-03-13T05:44:12;7.30;;;3.42;;
58657;SDS011;44428;45.630;13.786;2023-03-13T05:46:56;6.13;;;2.75;;
58657;SDS011;44428;45.630;13.786;2023-03-13T05:49:51;5.88;;;3.25;;
58657;SDS011;44428;45.630;13.786;2023-03-13T05:52:46;7.13;;;3.38;;
58657;SDS011;44428;45.630;13.786;2023-03-13T05:55:21;9.43;;;3.55;;
58657;SDS011;44428;45.630;13.786;2023-03-13T05:58:06;6.30;;;3.05;;
58657;SDS011;44428;45.630;13.786;2023-03-13T06:01:05;5.80;;;2.95;;
58657;SDS011;44428;45.630;13.786;2023-03-13T06:03:53;7.00;;;3.13;;
58657;SDS011;44428;45.630;13.786;2023-03-13T06:06:19;5.55;;;2.92;;
58657;SDS011;44428;45.630;13.786;2023-03-13T06:08:50;8.00;;;3.13;;
58657;SDS011;44428;45.630;13.786;2023-03-13T06:11:21;5.38;;;3.20;;
58657;SDS011;44428;45.630;13.786;2023-03-13T06:13:50;8.30;;;2.70;;
58657;SDS011;44428;45.630;13.786;2023-03-13T06:16:46;8.32;;;3.20;;
58657;SDS011;44428;45.630;13.786;2023-03-13T06:19:18;9.23;;;3.95;;
58657;SDS011;44428;45.630;13.786;2023-03-13T06:21:44;8.57;;;3.88;;
58657;SDS011;44428;45.630;13.786;2023-03-13T06:24:11;5.28;;;2.95;;
58657;SDS011;44428;45.630;13.786;2023-03-13T06:26:37;9.05;;;3.55;;
58657;SDS011;44428;45.630;13.786;2023-03-13T06:29:03;7.55;;;3.50;;
58657;SDS011;44428;45.630;13.786;2023-03-13T06:31:29;8.32;;;5.03;;
58657;SDS011;44428;45.630;13.786;2023-03-13T06:33:55;9.57;;;5.13;;
58657;SDS011;44428;45.630;13.786;2023-03-13T06:36:22;9.93;;;5.00;;
58657;SDS011;44428;45.630;13.786;2023-03-13T06:38:48;11.32;;;6.55;;
58657;SDS011;44428;45.630;13.786;2023-03-13T06:41:14;7.95;;;4.60;;
58657;SDS011;44428;45.630;13.786;2023-03-13T06:43:41;9.80;;;4.40;;
58657;SDS011;44428;45.630;13.786;2023-03-13T06:46:07;7.20;;;4.25;;
58657;SDS011;44428;45.630;13.786;2023-03-13T06:48:40;9.50;;;4.50;;
58657;SDS011;44428;45.630;13.786;2023-03-13T06:51:10;8.00;;;3.88;;
58657;SDS011;44428;45.630;13.786;2023-03-13T06:53:37;7.68;;;3.88;;
58657;SDS011;44428;45.630;13.786;2023-03-13T06:56:06;7.88;;;4.35;;
58657;SDS011;44428;45.630;13.786;2023-03-13T06:58:33;8.45;;;4.07;;
58657;SDS011;44428;45.630;13.786;2023-03-13T07:01:07;7.18;;;4.03;;
58657;SDS011;44428;45.630;13.786;2023-03-13T07:03:35;9.15;;;4.47;;
58657;SDS011;44428;45.630;13.786;2023-03-13T07:06:02;7.50;;;4.25;;
58657;SDS011;44428;45.630;13.786;2023-03-13T07:08:30;9.60;;;4.75;;
58657;SDS011;44428;45.630;13.786;2023-03-13T07:10:58;11.10;;;4.85;;
58657;SDS011;44428;45.630;13.786;2023-03-13T07:13:25;9.75;;;4.47;;
58657;SDS011;44428;45.630;13.786;2023-03-13T07:15:52;14.05;;;4.72;;
58657;SDS011;44428;45.630;13.786;2023-03-13T07:18:19;8.70;;;4.97;;
58657;SDS011;44428;45.630;13.786;2023-03-13T07:20:50;8.88;;;4.40;;
58657;SDS011;44428;45.630;13.786;2023-03-13T07:23:18;8.52;;;5.03;;
58657;SDS011;44428;45.630;13.786;2023-03-13T07:25:51;8.98;;;4.68;;
58657;SDS011;44428;45.630;13.786;2023-03-13T07:28:22;8.85;;;4.70;;
58657;SDS011;44428;45.630;13.786;2023-03-13T07:30:48;7.60;;;4.05;;
58657;SDS011;44428;45.630;13.786;2023-03-13T07:33:15;15.95;;;5.30;;
58657;SDS011;44428;45.630;13.786;2023-03-13T07:35:49;8.52;;;4.68;;
58657;SDS011;44428;45.630;13.786;2023-03-13T07:38:16;8.10;;;4.40;;
58657;SDS011;44428;45.630;13.786;2023-03-13T07:40:49;10.73;;;4.60;;
58657;SDS011;44428;45.630;13.786;2023-03-13T07:43:17;8.93;;;4.32;;
58657;SDS011;44428;45.630;13.786;2023-03-13T07:45:50;10.45;;;3.90;;
58657;SDS011;44428;45.630;13.786;2023-03-13T07:48:17;7.35;;;4.00;;
58657;SDS011;44428;45.630;13.786;2023-03-13T07:50:44;7.72;;;4.13;;
58657;SDS011;44428;45.630;13.786;2023-03-13T07:53:10;10.93;;;4.50;;
58657;SDS011;44428;45.630;13.786;2023-03-13T07:55:36;7.82;;;4.38;;
58657;SDS011;44428;45.630;13.786;2023-03-13T07:58:04;11.20;;;4.97;;
58657;SDS011;44428;45.630;13.786;2023-03-13T08:00:30;16.67;;;5.97;;
58657;SDS011;44428;45.630;13.786;2023-03-13T08:02:56;11.85;;;4.28;;
58657;SDS011;44428;45.630;13.786;2023-03-13T08:05:22;10.35;;;4.25;;
58657;SDS011;44428;45.630;13.786;2023-03-13T08:07:48;8.75;;;4.50;;
58657;SDS011;44428;45.630;13.786;2023-03-13T08:10:15;14.68;;;3.80;;
58657;SDS011;44428;45.630;13.786;2023-03-13T08:12:42;7.75;;;3.10;;
58657;SDS011;44428;45.630;13.786;2023-03-13T08:15:08;6.88;;;3.20;;
58657;SDS011;44428;45.630;13.786;2023-03-13T08:17:36;6.78;;;3.35;;
58657;SDS011;44428;45.630;13.786;2023-03-13T08:20:04;8.40;;;3.65;;
58657;SDS011;44428;45.630;13.786;2023-03-13T08:22:32;9.60;;;3.65;;
58657;SDS011;44428;45.630;13.786;2023-03-13T08:24:58;7.90;;;3.17;;
58657;SDS011;44428;45.630;13.786;2023-03-13T08:27:28;6.07;;;2.60;;
58657;SDS011;44428;45.630;13.786;2023-03-13T08:29:54;5.32;;;2.90;;
58657;SDS011;44428;45.630;13.786;2023-03-13T08:32:20;11.57;;;3.80;;
58657;SDS011;44428;45.630;13.786;2023-03-13T08:34:46;10.70;;;3.70;;
58657;SDS011;44428;45.630;13.786;2023-03-13T08:37:15;10.80;;;5.00;;
58657;SDS011;44428;45.630;13.786;2023-03-13T08:39:42;11.68;;;4.10;;
58657;SDS011;44428;45.630;13.786;2023-03-13T08:42:10;15.25;;;3.85;;
58657;SDS011;44428;45.630;13.786;2023-03-13T08:44:38;8.40;;;2.95;;
58657;SDS011;44428;45.630;13.786;2023-03-13T08:47:05;5.32;;;2.90;;
58657;SDS011;44428;45.630;13.786;2023-03-13T08:49:32;7.43;;;3.50;;
58657;SDS011;44428;45.630;13.786;2023-03-13T08:51:58;3.83;;;2.05;;
58657;SDS011;44428;45.630;13.786;2023-03-13T08:54:25;5.30;;;2.03;;
58657;SDS011;44428;45.630;13.786;2023-03-13T08:56:51;4.35;;;1.88;;
58657;SDS011;44428;45.630;13.786;2023-03-13T08:59:17;4.55;;;2.00;;
58657;SDS011;44428;45.630;13.786;2023-03-13T09:01:45;6.68;;;2.10;;
58657;SDS011;44428;45.630;13.786;2023-03-13T09:04:11;5.35;;;1.80;;
58657;SDS011;44428;45.630;13.786;2023-03-13T09:06:38;3.85;;;1.55;;
58657;SDS011;44428;45.630;13.786;2023-03-13T09:09:05;6.90;;;1.75;;
58657;SDS011;44428;45.630;13.786;2023-03-13T09:11:32;7.45;;;3.28;;
58657;SDS011;44428;45.630;13.786;2023-03-13T09:14:00;9.10;;;3.22;;
58657;SDS011;44428;45.630;13.786;2023-03-13T09:16:27;6.10;;;2.75;;
58657;SDS011;44428;45.630;13.786;2023-03-13T09:18:55;5.47;;;2.30;;
58657;SDS011;44428;45.630;13.786;2023-03-13T09:21:23;6.13;;;2.80;;
58657;SDS011;44428;45.630;13.786;2023-03-13T09:23:51;6.35;;;3.08;;
58657;SDS011;44428;45.630;13.786;2023-03-13T09:26:18;4.78;;;1.95;;
58657;SDS011;44428;45.630;13.786;2023-03-13T09:28:45;7.05;;;2.30;;
58657;SDS011;44428;45.630;13.786;2023-03-13T09:31:16;3.35;;;1.40;;
58657;SDS011;44428;45.630;13.786;2023-03-13T09:33:47;3.97;;;1.60;;
58657;SDS011;44428;45.630;13.786;2023-03-13T09:36:15;4.47;;;1.85;;
58657;SDS011;44428;45.630;13.786;2023-03-13T09:38:42;6.65;;;1.85;;
58657;SDS011;44428;45.630;13.786;2023-03-13T09:41:19;3.88;;;2.08;;
58657;SDS011;44428;45.630;13.786;2023-03-13T09:46:54;9.65;;;3.40;;
58657;SDS011;44428;45.630;13.786;2023-03-13T09:49:50;6.55;;;3.30;;
58657;SDS011;44428;45.630;13.786;2023-03-13T09:52:33;7.28;;;3.22;;
58657;SDS011;44428;45.630;13.786;2023-03-13T09:57:53;5.32;;;2.88;;
58657;SDS011;44428;45.630;13.786;2023-03-13T10:03:04;4.50;;;2.65;;
58657;SDS011;44428;45.630;13.786;2023-03-13T10:05:42;4.25;;;2.55;;
58657;SDS011;44428;45.630;13.786;2023-03-13T10:08:18;5.97;;;2.70;;
58657;SDS011;44428;45.630;13.786;2023-03-13T10:11:02;7.43;;;2.33;;
58657;SDS011;44428;45.630;13.786;2023-03-13T10:19:00;7.13;;;2.30;;
58657;SDS011;44428;45.630;13.786;2023-03-13T10:21:35;4.72;;;2.55;;
58657;SDS011;44428;45.630;13.786;2023-03-13T10:24:04;4.80;;;2.30;;
58657;SDS011;44428;45.630;13.786;2023-03-13T10:26:38;7.65;;;2.22;;
58657;SDS011;44428;45.630;13.786;2023-03-13T10:29:15;4.72;;;2.20;;
58657;SDS011;44428;45.630;13.786;2023-03-13T10:31:58;3.28;;;1.95;;
58657;SDS011;44428;45.630;13.786;2023-03-13T10:34:32;3.72;;;1.92;;
58657;SDS011;44428;45.630;13.786;2023-03-13T10:40:13;4.53;;;2.00;;
58657;SDS011;44428;45.630;13.786;2023-03-13T10:42:47;4.72;;;1.80;;
58657;SDS011;44428;45.630;13.786;2023-03-13T10:45:16;4.22;;;1.90;;
58657;SDS011;44428;45.630;13.786;2023-03-13T10:47:44;7.43;;;2.00;;
58657;SDS011;44428;45.630;13.786;2023-03-13T10:50:20;2.30;;;1.60;;
58657;SDS011;44428;45.630;13.786;2023-03-13T10:52:48;4.13;;;1.80;;
58657;SDS011;44428;45.630;13.786;2023-03-13T10:55:17;4.57;;;2.00;;
58657;SDS011;44428;45.630;13.786;2023-03-13T10:58:03;3.97;;;2.00;;
58657;SDS011;44428;45.630;13.786;2023-03-13T11:03:15;3.63;;;1.90;;
58657;SDS011;44428;45.630;13.786;2023-03-13T11:05:55;2.92;;;1.60;;
58657;SDS011;44428;45.630;13.786;2023-03-13T11:08:26;10.40;;;2.53;;
58657;SDS011;44428;45.630;13.786;2023-03-13T11:11:00;8.18;;;2.42;;
58657;SDS011;44428;45.630;13.786;2023-03-13T11:13:33;4.95;;;1.95;;
58657;SDS011;44428;45.630;13.786;2023-03-13T11:21:53;3.25;;;1.58;;
58657;SDS011;44428;45.630;13.786;2023-03-13T11:33:08;4.10;;;1.70;;
58657;SDS011;44428;45.630;13.786;2023-03-13T11:39:02;4.25;;;1.50;;
58657;SDS011;44428;45.630;13.786;2023-03-13T11:49:41;6.95;;;1.65;;
58657;SDS011;44428;45.630;13.786;2023-03-13T12:00:32;2.95;;;1.20;;
58657;SDS011;44428;45.630;13.786;2023-03-13T12:05:50;2.10;;;1.13;;
58657;SDS011;44428;45.630;13.786;2023-03-13T12:08:19;3.20;;;1.33;;
58657;SDS011;44428;45.630;13.786;2023-03-13T12:11:03;3.63;;;1.58;;
58657;SDS011;44428;45.630;13.786;2023-03-13T12:13:38;2.92;;;1.27;;
58657;SDS011;44428;45.630;13.786;2023-03-13T12:16:29;3.33;;;1.38;;
58657;SDS011;44428;45.630;13.786;2023-03-13T12:19:16;3.38;;;1.80;;
58657;SDS011;44428;45.630;13.786;2023-03-13T12:21:51;4.05;;;2.00;;
58657;SDS011;44428;45.630;13.786;2023-03-13T12:24:27;4.88;;;1.70;;
58657;SDS011;44428;45.630;13.786;2023-03-13T12:27:25;3.30;;;1.67;;
58657;SDS011;44428;45.630;13.786;2023-03-13T12:36:06;4.55;;;1.75;;
58657;SDS011;44428;45.630;13.786;2023-03-13T12:41:34;2.97;;;1.70;;
58657;SDS011;44428;45.630;13.786;2023-03-13T12:44:11;2.70;;;1.33;;
58657;SDS011;44428;45.630;13.786;2023-03-13T12:46:44;3.95;;;1.40;;
58657;SDS011;44428;45.630;13.786;2023-03-13T13:00:30;2.25;;;0.93;;
58657;SDS011;44428;45.630;13.786;2023-03-13T13:03:08;2.42;;;0.80;;
58657;SDS011;44428;45.630;13.786;2023-03-13T13:05:59;3.55;;;1.00;;
58657;SDS011;44428;45.630;13.786;2023-03-13T13:08:30;2.30;;;1.10;;
58657;SDS011;44428;45.630;13.786;2023-03-13T13:14:00;1.70;;;0.90;;
58657;SDS011;44428;45.630;13.786;2023-03-13T13:16:30;2.30;;;0.80;;
58657;SDS011;44428;45.630;13.786;2023-03-13T13:24:57;2.15;;;0.95;;
58657;SDS011;44428;45.630;13.786;2023-03-13T13:29:58;4.25;;;1.60;;
58657;SDS011;44428;45.630;13.786;2023-03-13T13:32:44;1.52;;;0.77;;
58657;SDS011;44428;45.630;13.786;2023-03-13T13:35:30;2.13;;;0.70;;
58657;SDS011;44428;45.630;13.786;2023-03-13T13:41:03;5.15;;;1.10;;
58657;SDS011;44428;45.630;13.786;2023-03-13T13:48:38;4.10;;;1.20;;
58657;SDS011;44428;45.630;13.786;2023-03-13T13:53:46;3.30;;;1.00;;
58657;SDS011;44428;45.630;13.786;2023-03-13T14:01:31;5.15;;;1.13;;
58657;SDS011;44428;45.630;13.786;2023-03-13T14:04:24;5.40;;;1.10;;
58657;SDS011;44428;45.630;13.786;2023-03-13T14:06:52;3.15;;;1.00;;
58657;SDS011;44428;45.630;13.786;2023-03-13T14:15:17;2.72;;;0.90;;
58657;SDS011;44428;45.630;13.786;2023-03-13T14:17:45;3.35;;;1.00;;
58657;SDS011;44428;45.630;13.786;2023-03-13T14:20:35;2.23;;;1.30;;
58657;SDS011;44428;45.630;13.786;2023-03-13T14:23:03;2.83;;;1.00;;
58657;SDS011;44428;45.630;13.786;2023-03-13T14:25:44;4.95;;;1.00;;
58657;SDS011;44428;45.630;13.786;2023-03-13T14:28:15;1.90;;;0.80;;
58657;SDS011;44428;45.630;13.786;2023-03-13T14:30:44;3.75;;;1.00;;
58657;SDS011;44428;45.630;13.786;2023-03-13T14:33:10;4.07;;;1.00;;
58657;SDS011;44428;45.630;13.786;2023-03-13T14:35:37;4.55;;;1.15;;
58657;SDS011;44428;45.630;13.786;2023-03-13T14:38:04;2.28;;;0.90;;
58657;SDS011;44428;45.630;13.786;2023-03-13T14:40:32;3.60;;;1.20;;
58657;SDS011;44428;45.630;13.786;2023-03-13T14:43:02;4.32;;;0.98;;
58657;SDS011;44428;45.630;13.786;2023-03-13T14:45:33;2.85;;;1.40;;
58657;SDS011;44428;45.630;13.786;2023-03-13T14:48:20;4.65;;;1.30;;
58657;SDS011;44428;45.630;13.786;2023-03-13T14:50:49;5.35;;;1.23;;
58657;SDS011;44428;45.630;13.786;2023-03-13T14:53:19;5.07;;;1.10;;
58657;SDS011;44428;45.630;13.786;2023-03-13T14:55:46;2.95;;;1.15;;
58657;SDS011;44428;45.630;13.786;2023-03-13T15:00:53;4.40;;;1.20;;
58657;SDS011;44428;45.630;13.786;2023-03-13T15:03:22;2.60;;;0.90;;
58657;SDS011;44428;45.630;13.786;2023-03-13T15:06:06;4.70;;;1.20;;
58657;SDS011;44428;45.630;13.786;2023-03-13T15:08:47;3.40;;;0.98;;
58657;SDS011;44428;45.630;13.786;2023-03-13T15:11:31;3.72;;;0.85;;
58657;SDS011;44428;45.630;13.786;2023-03-13T15:14:01;4.57;;;1.45;;
58657;SDS011;44428;45.630;13.786;2023-03-13T15:16:28;1.58;;;0.98;;
58657;SDS011;44428;45.630;13.786;2023-03-13T15:18:54;4.70;;;0.90;;
58657;SDS011;44428;45.630;13.786;2023-03-13T15:21:22;3.25;;;0.90;;
58657;SDS011;44428;45.630;13.786;2023-03-13T15:26:20;5.03;;;1.65;;
58657;SDS011;44428;45.630;13.786;2023-03-13T15:28:47;2.53;;;1.40;;
58657;SDS011;44428;45.630;13.786;2023-03-13T15:31:13;3.22;;;1.30;;
58657;SDS011;44428;45.630;13.786;2023-03-13T15:33:40;6.13;;;1.30;;
58657;SDS011;44428;45.630;13.786;2023-03-13T15:36:08;4.25;;;1.40;;
58657;SDS011;44428;45.630;13.786;2023-03-13T15:38:37;3.45;;;1.27;;
58657;SDS011;44428;45.630;13.786;2023-03-13T15:41:03;6.07;;;1.40;;
58657;SDS011;44428;45.630;13.786;2023-03-13T15:43:30;5.15;;;1.30;;
58657;SDS011;44428;45.630;13.786;2023-03-13T15:45:56;3.65;;;1.40;;
58657;SDS011;44428;45.630;13.786;2023-03-13T15:48:23;2.85;;;1.38;;
58657;SDS011;44428;45.630;13.786;2023-03-13T15:50:56;5.05;;;1.13;;
58657;SDS011;44428;45.630;13.786;2023-03-13T15:53:28;2.97;;;1.48;;
58657;SDS011;44428;45.630;13.786;2023-03-13T15:55:59;4.50;;;1.48;;
58657;SDS011;44428;45.630;13.786;2023-03-13T15:58:27;4.82;;;1.30;;
58657;SDS011;44428;45.630;13.786;2023-03-13T16:00:54;4.00;;;1.40;;
58657;SDS011;44428;45.630;13.786;2023-03-13T16:03:22;3.40;;;1.30;;
58657;SDS011;44428;45.630;13.786;2023-03-13T16:05:52;3.72;;;1.80;;
58657;SDS011;44428;45.630;13.786;2023-03-13T16:08:25;5.10;;;1.27;;
58657;SDS011;44428;45.630;13.786;2023-03-13T16:10:53;5.45;;;1.73;;
58657;SDS011;44428;45.630;13.786;2023-03-13T16:13:20;5.60;;;1.33;;
58657;SDS011;44428;45.630;13.786;2023-03-13T16:15:48;4.60;;;1.90;;
58657;SDS011;44428;45.630;13.786;2023-03-13T16:18:18;5.55;;;1.60;;
58657;SDS011;44428;45.630;13.786;2023-03-13T16:20:47;7.80;;;1.60;;
58657;SDS011;44428;45.630;13.786;2023-03-13T16:23:15;5.28;;;1.70;;
58657;SDS011;44428;45.630;13.786;2023-03-13T16:25:42;4.57;;;1.70;;
58657;SDS011;44428;45.630;13.786;2023-03-13T16:28:12;4.82;;;1.70;;
58657;SDS011;44428;45.630;13.786;2023-03-13T16:30:40;4.68;;;1.50;;
58657;SDS011;44428;45.630;13.786;2023-03-13T16:33:08;3.22;;;1.70;;
58657;SDS011;44428;45.630;13.786;2023-03-13T16:35:35;4.38;;;1.80;;
58657;SDS011;44428;45.630;13.786;2023-03-13T16:38:02;4.40;;;1.77;;
58657;SDS011;44428;45.630;13.786;2023-03-13T16:40:30;4.40;;;1.73;;
58657;SDS011;44428;45.630;13.786;2023-03-13T16:42:57;6.45;;;2.20;;
58657;SDS011;44428;45.630;13.786;2023-03-13T16:45:23;5.80;;;1.83;;
58657;SDS011;44428;45.630;13.786;2023-03-13T16:47:50;3.85;;;1.73;;
58657;SDS011;44428;45.630;13.786;2023-03-13T16:50:23;4.80;;;1.90;;
58657;SDS011;44428;45.630;13.786;2023-03-13T16:52:58;5.97;;;1.90;;
58657;SDS011;44428;45.630;13.786;2023-03-13T16:55:25;5.75;;;1.92;;
58657;SDS011;44428;45.630;13.786;2023-03-13T16:58:00;5.63;;;1.83;;
58657;SDS011;44428;45.630;13.786;2023-03-13T17:00:28;4.55;;;1.90;;
58657;SDS011;44428;45.630;13.786;2023-03-13T17:02:55;6.22;;;2.53;;
58657;SDS011;44428;45.630;13.786;2023-03-13T17:05:23;7.40;;;2.45;;
58657;SDS011;44428;45.630;13.786;2023-03-13T17:07:52;7.07;;;2.67;;